sensor_id;sensor_type;location;lat;lon;timestamp;temperature;humidity
49901;DHT22;35789;48.414;12.768;2023-03-14T00:00:00;6.2;99.9
49901;DHT22;35789;48.414;12.768;2023-03-14T00:05:00;6.1;99.9
49901;DHT22;35789;48.414;12.768;2023-03-14T00:10:01;6.0;99.9
49901;DHT22;35789;48.414;12.768;2023-03-14T00:15:00;5.8;99.9
49901;DHT22;35789;48.414;12.768;2023-03-14T00:20:00;5.7;99.9
49901;DHT22;35789;48.414;12.768;2023-03-14T00:25:00;5.7;99.9
49901;DHT22;35789;48.414;12.768;2023-03-14T00:30:00;5.6;99.9
49901;DHT22;35789;48.414;12.768;2023-03-14T00:35:00;5.6;99.9
49901;DHT22;35789;48.414;12.768;2023-03-14T00:40:00;5.6;99.9
49901;DHT22;35789;48.414;12.768;2023-03-14T00:45:00;5.6;99.9
49901;DHT22;35789;48.414;12.768;2023-03-14T00:50:00;5.7;99.9
49901;DHT22;35789;48.414;12.768;2023-03-14T00:55:00;5.7;99.9
49901;DHT22;35789;48.414;12.768;2023-03-14T01:00:00;5.6;99.9
49901;DHT22;35789;48.414;12.768;2023-03-14T01:05:00;5.6;99.9
49901;DHT22;35789;48.414;12.768;2023-03-14T01:10:00;5.6;99.9
49901;DHT22;35789;48.414;12.768;2023-03-14T01:15:00;5.5;99.9
49901;DHT22;35789;48.414;12.768;2023-03-14T01:20:00;5.5;99.9
49901;DHT22;35789;48.414;12.768;2023-03-14T01:25:00;5.5;99.9
49901;DHT22;35789;48.414;12.768;2023-03-14T01:30:00;5.4;99.9
49901;DHT22;35789;48.414;12.768;2023-03-14T01:35:00;5.4;99.9
49901;DHT22;35789;48.414;12.768;2023-03-14T01:40:00;5.4;99.9
49901;DHT22;35789;48.414;12.768;2023-03-14T01:45:00;5.5;99.9
49901;DHT22;35789;48.414;12.768;2023-03-14T01:50:02;5.6;99.9
49901;DHT22;35789;48.414;12.768;2023-03-14T01:55:02;5.5;99.9
49901;DHT22;35789;48.414;12.768;2023-03-14T02:00:01;5.6;99.9
49901;DHT22;35789;48.414;12.768;2023-03-14T02:05:00;5.6;99.9
49901;DHT22;35789;48.414;12.768;2023-03-14T02:10:00;5.7;99.9
49901;DHT22;35789;48.414;12.768;2023-03-14T02:15:00;5.7;99.9
49901;DHT22;35789;48.414;12.768;2023-03-14T02:20:03;5.7;99.9
49901;DHT22;35789;48.414;12.768;2023-03-14T02:25:02;5.8;99.9
49901;DHT22;35789;48.414;12.768;2023-03-14T02:30:01;5.8;99.9
49901;DHT22;35789;48.414;12.768;2023-03-14T02:35:01;5.9;99.9
49901;DHT22;35789;48.414;12.768;2023-03-14T02:40:00;5.9;99.9
49901;DHT22;35789;48.414;12.768;2023-03-14T02:45:33;5.9;99.9
49901;DHT22;35789;48.414;12.768;2023-03-14T02:50:01;6.0;99.9
49901;DHT22;35789;48.414;12.768;2023-03-14T02:55:00;6.1;99.9
49901;DHT22;35789;48.414;12.768;2023-03-14T03:00:00;6.2;99.9
49901;DHT22;35789;48.414;12.768;2023-03-14T03:05:00;6.5;99.9
49901;DHT22;35789;48.414;12.768;2023-03-14T03:10:00;6.8;99.9
49901;DHT22;35789;48.414;12.768;2023-03-14T03:15:00;6.8;99.9
49901;DHT22;35789;48.414;12.768;2023-03-14T03:20:00;7.1;99.9
49901;DHT22;35789;48.414;12.768;2023-03-14T03:25:00;7.2;99.9
49901;DHT22;35789;48.414;12.768;2023-03-14T03:30:03;7.3;99.9
49901;DHT22;35789;48.414;12.768;2023-03-14T03:35:01;7.3;99.9
49901;DHT22;35789;48.414;12.768;2023-03-14T03:40:00;7.4;99.9
49901;DHT22;35789;48.414;12.768;2023-03-14T03:45:00;7.2;99.9
49901;DHT22;35789;48.414;12.768;2023-03-14T03:50:00;7.1;99.9
49901;DHT22;35789;48.414;12.768;2023-03-14T03:55:00;7.1;99.9
49901;DHT22;35789;48.414;12.768;2023-03-14T04:00:00;7.1;99.9
49901;DHT22;35789;48.414;12.768;2023-03-14T04:05:00;7.0;99.9
49901;DHT22;35789;48.414;12.768;2023-03-14T04:10:00;7.0;99.9
49901;DHT22;35789;48.414;12.768;2023-03-14T04:15:00;6.9;99.9
49901;DHT22;35789;48.414;12.768;2023-03-14T04:20:00;6.9;99.9
49901;DHT22;35789;48.414;12.768;2023-03-14T04:25:00;6.9;99.9
49901;DHT22;35789;48.414;12.768;2023-03-14T04:30:00;6.9;99.9
49901;DHT22;35789;48.414;12.768;2023-03-14T04:35:00;6.9;99.9
49901;DHT22;35789;48.414;12.768;2023-03-14T04:40:00;6.8;99.9
49901;DHT22;35789;48.414;12.768;2023-03-14T04:45:00;6.8;99.9
49901;DHT22;35789;48.414;12.768;2023-03-14T04:50:00;6.8;99.9
49901;DHT22;35789;48.414;12.768;2023-03-14T04:55:00;6.9;99.9
49901;DHT22;35789;48.414;12.768;2023-03-14T05:00:00;6.8;99.9
49901;DHT22;35789;48.414;12.768;2023-03-14T05:05:00;6.8;99.9
49901;DHT22;35789;48.414;12.768;2023-03-14T05:10:00;6.8;99.9
49901;DHT22;35789;48.414;12.768;2023-03-14T05:15:00;6.9;99.9
49901;DHT22;35789;48.414;12.768;2023-03-14T05:20:00;6.8;99.9
49901;DHT22;35789;48.414;12.768;2023-03-14T05:25:00;6.8;99.9
49901;DHT22;35789;48.414;12.768;2023-03-14T05:30:00;6.9;99.9
49901;DHT22;35789;48.414;12.768;2023-03-14T05:35:00;6.9;99.9
49901;DHT22;35789;48.414;12.768;2023-03-14T05:40:00;6.9;99.9
49901;DHT22;35789;48.414;12.768;2023-03-14T05:45:00;6.9;99.9
49901;DHT22;35789;48.414;12.768;2023-03-14T05:50:00;6.9;99.9
49901;DHT22;35789;48.414;12.768;2023-03-14T05:55:00;6.9;99.9
49901;DHT22;35789;48.414;12.768;2023-03-14T06:00:00;7.0;99.9
49901;DHT22;35789;48.414;12.768;2023-03-14T06:05:00;6.9;99.9
49901;DHT22;35789;48.414;12.768;2023-03-14T06:10:00;6.9;99.9
49901;DHT22;35789;48.414;12.768;2023-03-14T06:15:00;6.9;99.9
49901;DHT22;35789;48.414;12.768;2023-03-14T06:20:00;6.9;99.9
49901;DHT22;35789;48.414;12.768;2023-03-14T06:25:00;7.0;99.9
49901;DHT22;35789;48.414;12.768;2023-03-14T06:30:00;7.0;99.9
49901;DHT22;35789;48.414;12.768;2023-03-14T06:35:00;7.0;99.9
49901;DHT22;35789;48.414;12.768;2023-03-14T06:40:00;7.0;99.9
49901;DHT22;35789;48.414;12.768;2023-03-14T06:45:00;7.0;99.9
49901;DHT22;35789;48.414;12.768;2023-03-14T06:50:00;7.1;99.9
49901;DHT22;35789;48.414;12.768;2023-03-14T06:55:00;7.1;99.9
49901;DHT22;35789;48.414;12.768;2023-03-14T07:00:00;7.1;99.9
49901;DHT22;35789;48.414;12.768;2023-03-14T07:05:00;7.1;99.9
49901;DHT22;35789;48.414;12.768;2023-03-14T07:10:00;7.1;99.9
49901;DHT22;35789;48.414;12.768;2023-03-14T07:15:00;7.0;99.9
49901;DHT22;35789;48.414;12.768;2023-03-14T07:20:00;7.0;99.9
49901;DHT22;35789;48.414;12.768;2023-03-14T07:25:00;7.1;99.9
49901;DHT22;35789;48.414;12.768;2023-03-14T07:30:00;7.2;99.9
49901;DHT22;35789;48.414;12.768;2023-03-14T07:35:00;7.2;99.9
49901;DHT22;35789;48.414;12.768;2023-03-14T07:40:00;7.3;99.9
49901;DHT22;35789;48.414;12.768;2023-03-14T07:45:00;7.4;99.9
49901;DHT22;35789;48.414;12.768;2023-03-14T07:50:00;7.4;99.9
49901;DHT22;35789;48.414;12.768;2023-03-14T07:55:00;7.4;99.9
49901;DHT22;35789;48.414;12.768;2023-03-14T08:00:00;7.4;99.9
49901;DHT22;35789;48.414;12.768;2023-03-14T08:05:00;7.4;99.9
49901;DHT22;35789;48.414;12.768;2023-03-14T08:10:00;7.4;99.9
49901;DHT22;35789;48.414;12.768;2023-03-14T08:15:00;7.4;99.9
49901;DHT22;35789;48.414;12.768;2023-03-14T08:20:00;7.3;99.9
49901;DHT22;35789;48.414;12.768;2023-03-14T08:25:00;7.3;99.9
49901;DHT22;35789;48.414;12.768;2023-03-14T08:30:00;7.4;99.9
49901;DHT22;35789;48.414;12.768;2023-03-14T08:35:00;7.4;99.9
49901;DHT22;35789;48.414;12.768;2023-03-14T08:40:00;7.4;99.9
49901;DHT22;35789;48.414;12.768;2023-03-14T08:45:00;7.5;99.9
49901;DHT22;35789;48.414;12.768;2023-03-14T08:50:00;7.5;99.9
49901;DHT22;35789;48.414;12.768;2023-03-14T08:55:00;7.5;99.9
49901;DHT22;35789;48.414;12.768;2023-03-14T09:00:00;7.6;99.9
49901;DHT22;35789;48.414;12.768;2023-03-14T09:05:00;7.6;99.9
49901;DHT22;35789;48.414;12.768;2023-03-14T09:10:00;7.6;99.9
49901;DHT22;35789;48.414;12.768;2023-03-14T09:15:00;7.7;99.9
49901;DHT22;35789;48.414;12.768;2023-03-14T09:20:00;7.7;99.9
49901;DHT22;35789;48.414;12.768;2023-03-14T09:25:00;7.7;99.9
49901;DHT22;35789;48.414;12.768;2023-03-14T09:30:00;7.7;99.9
49901;DHT22;35789;48.414;12.768;2023-03-14T09:35:00;7.8;99.9
49901;DHT22;35789;48.414;12.768;2023-03-14T09:40:00;7.8;99.9
49901;DHT22;35789;48.414;12.768;2023-03-14T09:45:01;7.9;99.9
49901;DHT22;35789;48.414;12.768;2023-03-14T09:50:00;7.9;99.9
49901;DHT22;35789;48.414;12.768;2023-03-14T09:55:01;7.9;99.9
49901;DHT22;35789;48.414;12.768;2023-03-14T10:00:02;8.0;99.9
49901;DHT22;35789;48.414;12.768;2023-03-14T10:05:00;8.1;99.9
49901;DHT22;35789;48.414;12.768;2023-03-14T10:10:00;8.1;99.9
49901;DHT22;35789;48.414;12.768;2023-03-14T10:15:02;8.2;99.9
49901;DHT22;35789;48.414;12.768;2023-03-14T10:20:00;8.2;99.9
49901;DHT22;35789;48.414;12.768;2023-03-14T10:25:01;8.3;99.9
49901;DHT22;35789;48.414;12.768;2023-03-14T10:30:01;8.4;99.9
49901;DHT22;35789;48.414;12.768;2023-03-14T10:35:05;8.4;99.9
49901;DHT22;35789;48.414;12.768;2023-03-14T10:40:01;8.5;99.9
49901;DHT22;35789;48.414;12.768;2023-03-14T10:45:01;8.7;99.9
49901;DHT22;35789;48.414;12.768;2023-03-14T10:55:01;8.8;99.9
49901;DHT22;35789;48.414;12.768;2023-03-14T11:00:00;8.8;99.9
49901;DHT22;35789;48.414;12.768;2023-03-14T11:05:03;8.9;99.9
49901;DHT22;35789;48.414;12.768;2023-03-14T11:10:01;8.9;99.9
49901;DHT22;35789;48.414;12.768;2023-03-14T11:15:01;8.9;99.9
49901;DHT22;35789;48.414;12.768;2023-03-14T11:20:04;8.9;99.9
49901;DHT22;35789;48.414;12.768;2023-03-14T11:25:04;9.0;99.9
49901;DHT22;35789;48.414;12.768;2023-03-14T11:30:01;9.0;99.9
49901;DHT22;35789;48.414;12.768;2023-03-14T11:35:01;8.9;99.9
49901;DHT22;35789;48.414;12.768;2023-03-14T11:40:02;9.0;99.9
49901;DHT22;35789;48.414;12.768;2023-03-14T11:45:00;9.1;99.9
49901;DHT22;35789;48.414;12.768;2023-03-14T11:50:01;9.3;99.9
49901;DHT22;35789;48.414;12.768;2023-03-14T11:55:02;9.4;99.9
49901;DHT22;35789;48.414;12.768;2023-03-14T12:00:01;9.7;99.9
49901;DHT22;35789;48.414;12.768;2023-03-14T12:10:01;9.6;99.9
49901;DHT22;35789;48.414;12.768;2023-03-14T12:15:01;9.6;99.9
49901;DHT22;35789;48.414;12.768;2023-03-14T12:20:01;9.5;99.9
49901;DHT22;35789;48.414;12.768;2023-03-14T12:25:02;9.4;99.9
49901;DHT22;35789;48.414;12.768;2023-03-14T12:30:00;9.2;99.9
49901;DHT22;35789;48.414;12.768;2023-03-14T12:35:07;9.3;99.9
49901;DHT22;35789;48.414;12.768;2023-03-14T12:40:04;9.4;99.9
49901;DHT22;35789;48.414;12.768;2023-03-14T12:50:01;9.3;99.9
49901;DHT22;35789;48.414;12.768;2023-03-14T12:55:00;9.4;99.9
49901;DHT22;35789;48.414;12.768;2023-03-14T13:00:00;9.5;99.9
49901;DHT22;35789;48.414;12.768;2023-03-14T13:05:02;9.5;99.9
49901;DHT22;35789;48.414;12.768;2023-03-14T13:10:01;9.6;99.9
49901;DHT22;35789;48.414;12.768;2023-03-14T13:15:00;9.6;99.9
49901;DHT22;35789;48.414;12.768;2023-03-14T13:20:02;9.4;99.9
49901;DHT22;35789;48.414;12.768;2023-03-14T13:25:01;9.2;99.9
49901;DHT22;35789;48.414;12.768;2023-03-14T13:30:05;9.1;99.9
49901;DHT22;35789;48.414;12.768;2023-03-14T13:35:00;9.0;99.9
49901;DHT22;35789;48.414;12.768;2023-03-14T13:40:00;8.9;99.9
49901;DHT22;35789;48.414;12.768;2023-03-14T13:45:00;8.8;99.9
49901;DHT22;35789;48.414;12.768;2023-03-14T13:50:00;8.7;99.9
49901;DHT22;35789;48.414;12.768;2023-03-14T13:55:01;8.5;99.9
49901;DHT22;35789;48.414;12.768;2023-03-14T14:00:01;8.5;99.9
49901;DHT22;35789;48.414;12.768;2023-03-14T14:05:00;8.4;99.9
49901;DHT22;35789;48.414;12.768;2023-03-14T14:10:00;8.3;99.9
49901;DHT22;35789;48.414;12.768;2023-03-14T14:15:01;8.3;99.9
49901;DHT22;35789;48.414;12.768;2023-03-14T14:20:00;8.3;99.9
49901;DHT22;35789;48.414;12.768;2023-03-14T14:25:00;8.3;99.9
49901;DHT22;35789;48.414;12.768;2023-03-14T14:30:01;8.2;99.9
49901;DHT22;35789;48.414;12.768;2023-03-14T14:35:00;8.2;99.9
49901;DHT22;35789;48.414;12.768;2023-03-14T14:40:01;8.2;99.9
49901;DHT22;35789;48.414;12.768;2023-03-14T14:45:02;8.2;99.9
49901;DHT22;35789;48.414;12.768;2023-03-14T14:50:02;8.2;99.9
49901;DHT22;35789;48.414;12.768;2023-03-14T14:55:00;8.2;99.9
49901;DHT22;35789;48.414;12.768;2023-03-14T15:00:01;8.3;99.9
49901;DHT22;35789;48.414;12.768;2023-03-14T15:05:00;8.3;99.9
49901;DHT22;35789;48.414;12.768;2023-03-14T15:10:00;8.3;99.9
49901;DHT22;35789;48.414;12.768;2023-03-14T15:15:00;8.3;99.9
49901;DHT22;35789;48.414;12.768;2023-03-14T15:20:00;8.4;99.9
49901;DHT22;35789;48.414;12.768;2023-03-14T15:25:00;8.4;99.9
49901;DHT22;35789;48.414;12.768;2023-03-14T15:30:00;8.2;99.9
49901;DHT22;35789;48.414;12.768;2023-03-14T15:35:00;8.0;99.9
49901;DHT22;35789;48.414;12.768;2023-03-14T15:40:00;8.0;99.9
49901;DHT22;35789;48.414;12.768;2023-03-14T15:45:00;7.9;99.9
49901;DHT22;35789;48.414;12.768;2023-03-14T15:50:00;7.9;99.9
49901;DHT22;35789;48.414;12.768;2023-03-14T15:55:00;7.8;99.9
49901;DHT22;35789;48.414;12.768;2023-03-14T16:00:00;7.6;99.9
49901;DHT22;35789;48.414;12.768;2023-03-14T16:05:00;7.4;99.9
49901;DHT22;35789;48.414;12.768;2023-03-14T16:10:00;7.4;99.9
49901;DHT22;35789;48.414;12.768;2023-03-14T16:15:00;7.4;99.9
49901;DHT22;35789;48.414;12.768;2023-03-14T16:20:00;7.3;99.9
49901;DHT22;35789;48.414;12.768;2023-03-14T16:25:00;7.3;99.9
49901;DHT22;35789;48.414;12.768;2023-03-14T16:30:00;7.3;99.9
49901;DHT22;35789;48.414;12.768;2023-03-14T16:35:00;7.2;99.9
49901;DHT22;35789;48.414;12.768;2023-03-14T16:40:00;7.3;99.9
49901;DHT22;35789;48.414;12.768;2023-03-14T16:45:00;7.3;99.9
49901;DHT22;35789;48.414;12.768;2023-03-14T16:50:00;7.3;99.9
49901;DHT22;35789;48.414;12.768;2023-03-14T16:55:00;7.3;99.9
49901;DHT22;35789;48.414;12.768;2023-03-14T17:00:00;7.2;99.9
49901;DHT22;35789;48.414;12.768;2023-03-14T17:05:00;7.2;99.9
49901;DHT22;35789;48.414;12.768;2023-03-14T17:10:00;7.2;99.9
49901;DHT22;35789;48.414;12.768;2023-03-14T17:15:00;7.2;99.9
49901;DHT22;35789;48.414;12.768;2023-03-14T17:20:00;7.3;99.9
49901;DHT22;35789;48.414;12.768;2023-03-14T17:25:00;7.2;99.9
49901;DHT22;35789;48.414;12.768;2023-03-14T17:30:00;7.1;99.9
49901;DHT22;35789;48.414;12.768;2023-03-14T17:35:00;7.0;99.9
49901;DHT22;35789;48.414;12.768;2023-03-14T17:40:00;6.9;99.9
49901;DHT22;35789;48.414;12.768;2023-03-14T17:45:00;6.8;99.9
49901;DHT22;35789;48.414;12.768;2023-03-14T17:50:00;6.7;99.9
49901;DHT22;35789;48.414;12.768;2023-03-14T17:55:00;6.6;99.9
49901;DHT22;35789;48.414;12.768;2023-03-14T18:00:00;6.5;99.9
49901;DHT22;35789;48.414;12.768;2023-03-14T18:05:00;6.4;99.9
49901;DHT22;35789;48.414;12.768;2023-03-14T18:10:00;6.4;99.9
49901;DHT22;35789;48.414;12.768;2023-03-14T18:15:00;6.4;99.9
49901;DHT22;35789;48.414;12.768;2023-03-14T18:20:00;6.4;99.9
49901;DHT22;35789;48.414;12.768;2023-03-14T18:25:00;6.4;99.9
49901;DHT22;35789;48.414;12.768;2023-03-14T18:30:00;6.3;99.9
49901;DHT22;35789;48.414;12.768;2023-03-14T18:35:00;6.2;99.4
49901;DHT22;35789;48.414;12.768;2023-03-14T18:40:00;6.1;99.9
49901;DHT22;35789;48.414;12.768;2023-03-14T18:45:00;6.1;99.7
49901;DHT22;35789;48.414;12.768;2023-03-14T18:50:00;6.0;99.9
49901;DHT22;35789;48.414;12.768;2023-03-14T18:55:00;6.1;99.9
49901;DHT22;35789;48.414;12.768;2023-03-14T19:00:00;6.0;99.9
49901;DHT22;35789;48.414;12.768;2023-03-14T19:05:00;5.9;99.9
49901;DHT22;35789;48.414;12.768;2023-03-14T19:10:00;5.9;99.9
49901;DHT22;35789;48.414;12.768;2023-03-14T19:15:00;5.9;99.9
49901;DHT22;35789;48.414;12.768;2023-03-14T19:20:00;5.8;99.9
49901;DHT22;35789;48.414;12.768;2023-03-14T19:25:00;5.8;99.9
49901;DHT22;35789;48.414;12.768;2023-03-14T19:30:00;5.8;99.9
49901;DHT22;35789;48.414;12.768;2023-03-14T19:35:00;5.7;99.9
49901;DHT22;35789;48.414;12.768;2023-03-14T19:40:00;5.7;99.9
49901;DHT22;35789;48.414;12.768;2023-03-14T19:45:00;5.6;99.9
49901;DHT22;35789;48.414;12.768;2023-03-14T19:50:00;5.7;99.9
49901;DHT22;35789;48.414;12.768;2023-03-14T19:55:00;5.6;99.9
49901;DHT22;35789;48.414;12.768;2023-03-14T20:00:00;5.6;99.9
49901;DHT22;35789;48.414;12.768;2023-03-14T20:05:00;5.5;99.9
49901;DHT22;35789;48.414;12.768;2023-03-14T20:10:00;5.4;99.9
49901;DHT22;35789;48.414;12.768;2023-03-14T20:15:00;5.3;99.9
49901;DHT22;35789;48.414;12.768;2023-03-14T20:20:00;5.3;99.9
49901;DHT22;35789;48.414;12.768;2023-03-14T20:25:00;5.3;99.9
49901;DHT22;35789;48.414;12.768;2023-03-14T20:30:00;5.3;99.9
49901;DHT22;35789;48.414;12.768;2023-03-14T20:35:00;5.3;99.9
49901;DHT22;35789;48.414;12.768;2023-03-14T20:40:00;5.3;99.9
49901;DHT22;35789;48.414;12.768;2023-03-14T20:45:00;5.2;99.9
49901;DHT22;35789;48.414;12.768;2023-03-14T20:50:00;5.2;99.9
49901;DHT22;35789;48.414;12.768;2023-03-14T20:55:00;5.1;99.9
49901;DHT22;35789;48.414;12.768;2023-03-14T21:00:00;5.1;99.9
49901;DHT22;35789;48.414;12.768;2023-03-14T21:05:00;5.0;99.9
49901;DHT22;35789;48.414;12.768;2023-03-14T21:10:00;4.9;99.9
49901;DHT22;35789;48.414;12.768;2023-03-14T21:15:00;4.9;99.9
49901;DHT22;35789;48.414;12.768;2023-03-14T21:20:00;4.8;99.9
49901;DHT22;35789;48.414;12.768;2023-03-14T21:25:00;4.7;99.9
49901;DHT22;35789;48.414;12.768;2023-03-14T21:30:00;4.7;99.9
49901;DHT22;35789;48.414;12.768;2023-03-14T21:35:00;4.7;99.9
49901;DHT22;35789;48.414;12.768;2023-03-14T21:40:00;4.8;99.9
49901;DHT22;35789;48.414;12.768;2023-03-14T21:45:00;4.9;99.9
49901;DHT22;35789;48.414;12.768;2023-03-14T21:50:00;4.9;99.9
49901;DHT22;35789;48.414;12.768;2023-03-14T21:55:00;4.9;99.9
49901;DHT22;35789;48.414;12.768;2023-03-14T22:00:00;4.9;99.9
49901;DHT22;35789;48.414;12.768;2023-03-14T22:05:00;4.9;99.9
49901;DHT22;35789;48.414;12.768;2023-03-14T22:10:00;5.0;99.9
49901;DHT22;35789;48.414;12.768;2023-03-14T22:15:00;5.0;99.9
49901;DHT22;35789;48.414;12.768;2023-03-14T22:20:00;5.0;99.9
49901;DHT22;35789;48.414;12.768;2023-03-14T22:25:00;5.0;99.9
49901;DHT22;35789;48.414;12.768;2023-03-14T22:30:00;5.1;99.9
49901;DHT22;35789;48.414;12.768;2023-03-14T22:35:00;5.0;99.9
49901;DHT22;35789;48.414;12.768;2023-03-14T22:40:00;5.1;99.9
49901;DHT22;35789;48.414;12.768;2023-03-14T22:45:00;5.0;99.9
49901;DHT22;35789;48.414;12.768;2023-03-14T22:50:00;5.0;99.9
49901;DHT22;35789;48.414;12.768;2023-03-14T22:55:00;4.9;99.9
49901;DHT22;35789;48.414;12.768;2023-03-14T23:00:00;4.9;99.9
49901;DHT22;35789;48.414;12.768;2023-03-14T23:05:00;4.9;99.9
49901;DHT22;35789;48.414;12.768;2023-03-14T23:10:00;4.8;99.9
49901;DHT22;35789;48.414;12.768;2023-03-14T23:15:00;4.7;99.9
49901;DHT22;35789;48.414;12.768;2023-03-14T23:20:00;4.7;99.9
49901;DHT22;35789;48.414;12.768;2023-03-14T23:25:00;4.6;99.9
49901;DHT22;35789;48.414;12.768;2023-03-14T23:30:00;4.6;99.9
49901;DHT22;35789;48.414;12.768;2023-03-14T23:35:00;4.7;99.9
49901;DHT22;35789;48.414;12.768;2023-03-14T23:40:00;4.7;99.9
49901;DHT22;35789;48.414;12.768;2023-03-14T23:45:00;4.8;99.9
49901;DHT22;35789;48.414;12.768;2023-03-14T23:50:00;4.7;99.9
49901;DHT22;35789;48.414;12.768;2023-03-14T23:55:00;4.8;99.9
